Time;durP1;ratioP1;P1;durP2;ratioP2;P2;SDS_P1;SDS_P2;PMS_P1;PMS_P2;Temp;Humidity;BMP_temperature;BMP_pressure;BME280_temperature;BME280_humidity;BME280_pressure;Samples;Min_cycle;Max_cycle;Signal;HPM_P1;HPM_P2
2021/12/02 00:00:42;;;;;;;4.50;4.10;;;22.40;75.00;;;;;;6230538;28;84052;-61
2021/12/02 00:03:46;;;;;;;4.50;4.10;;;22.40;75.00;;;;;;6231794;28;83962;-60
2021/12/02 00:06:48;;;;;;;4.78;4.30;;;22.40;75.10;;;;;;6223759;28;84169;-61
2021/12/02 00:09:51;;;;;;;4.65;4.25;;;22.40;75.00;;;;;;6224557;28;83933;-60
2021/12/02 00:12:56;;;;;;;4.80;4.30;;;22.40;75.00;;;;;;6231376;28;82833;-61
2021/12/02 00:16:04;;;;;;;4.82;4.40;;;22.40;75.00;;;;;;6226999;28;84078;-60
2021/12/02 00:22:29;;;;;;;4.70;4.30;;;22.30;75.00;;;;;;6223769;28;82606;-60
2021/12/02 00:25:33;;;;;;;4.30;3.90;;;22.30;75.00;;;;;;6217721;28;84983;-60
2021/12/02 00:28:37;;;;;;;4.47;4.07;;;22.30;76.00;;;;;;6232153;28;83338;-61
2021/12/02 00:31:40;;;;;;;4.20;3.80;;;22.30;75.00;;;;;;6218920;28;84094;-60
2021/12/02 00:34:44;;;;;;;4.65;4.25;;;22.30;75.00;;;;;;6232009;28;84063;-61
2021/12/02 00:37:46;;;;;;;4.10;3.70;;;22.30;75.10;;;;;;6223966;28;84880;-61
2021/12/02 00:40:50;;;;;;;4.38;3.97;;;22.30;75.00;;;;;;6228024;28;82943;-61
2021/12/02 00:43:54;;;;;;;4.18;3.78;;;22.30;75.00;;;;;;6230002;28;84085;-61
2021/12/02 00:46:56;;;;;;;4.78;4.30;;;22.30;75.00;;;;;;6232250;28;84012;-61
2021/12/02 00:49:58;;;;;;;4.70;4.22;;;22.30;75.00;;;;;;6226699;28;84040;-61
2021/12/02 00:53:02;;;;;;;4.63;4.22;;;22.30;75.00;;;;;;6224627;28;84055;-61
2021/12/02 00:56:07;;;;;;;4.40;4.00;;;22.20;75.00;;;;;;6229529;28;84059;-61
2021/12/02 00:59:10;;;;;;;5.00;4.50;;;22.20;75.00;;;;;;6220236;28;82232;-60
2021/12/02 01:02:12;;;;;;;4.78;4.13;;;22.20;74.90;;;;;;6216411;28;84482;-61
2021/12/02 01:05:14;;;;;;;4.40;4.00;;;22.20;74.90;;;;;;6226513;28;84019;-61
2021/12/02 01:08:16;;;;;;;4.55;4.15;;;22.20;75.00;;;;;;6221113;28;86195;-61
2021/12/02 01:11:20;;;;;;;4.82;4.43;;;22.20;74.90;;;;;;6232803;28;82917;-61
2021/12/02 01:14:22;;;;;;;4.90;4.50;;;22.10;74.90;;;;;;6223765;28;84251;-60
2021/12/02 01:17:24;;;;;;;4.72;4.32;;;22.20;74.90;;;;;;6230814;28;84042;-61
2021/12/02 01:20:26;;;;;;;5.43;4.93;;;22.20;75.00;;;;;;6226084;28;82165;-61
2021/12/02 01:23:32;;;;;;;5.13;4.63;;;22.10;75.00;;;;;;6222097;28;83824;-61
2021/12/02 01:26:36;;;;;;;5.47;4.97;;;22.10;75.00;;;;;;6220802;28;84283;-61
2021/12/02 01:29:39;;;;;;;5.40;4.90;;;22.10;75.00;;;;;;6231825;28;83323;-61
2021/12/02 01:32:43;;;;;;;5.40;4.90;;;22.10;75.10;;;;;;6226623;28;82915;-61
2021/12/02 01:35:50;;;;;;;5.63;5.00;;;22.20;75.00;;;;;;6229310;28;84130;-61
2021/12/02 01:38:53;;;;;;;5.45;4.95;;;22.10;74.90;;;;;;6222391;28;85308;-60
2021/12/02 01:41:59;;;;;;;5.18;4.60;;;22.10;75.00;;;;;;6232180;28;84434;-61
2021/12/02 01:45:02;;;;;;;5.57;4.72;;;22.10;74.90;;;;;;6221046;28;85040;-61
2021/12/02 01:48:09;;;;;;;5.32;4.82;;;22.10;74.90;;;;;;6223846;28;83241;-61
2021/12/02 01:51:12;;;;;;;5.00;4.50;;;22.10;75.00;;;;;;6226493;28;84001;-61
2021/12/02 01:54:17;;;;;;;5.82;5.22;;;22.10;75.10;;;;;;6229359;28;83416;-61
2021/12/02 01:57:30;;;;;;;5.50;5.00;;;22.10;75.00;;;;;;6219895;28;84145;-61
2021/12/02 02:00:41;;;;;;;6.93;5.40;;;22.10;75.00;;;;;;6224287;28;82043;-61
2021/12/02 02:03:44;;;;;;;6.40;5.80;;;22.00;75.00;;;;;;6220887;28;83144;-60
2021/12/02 02:06:55;;;;;;;6.10;5.50;;;22.00;75.00;;;;;;6221562;28;82907;-61
2021/12/02 02:09:57;;;;;;;6.35;5.75;;;22.00;75.00;;;;;;6221927;28;85001;-61
2021/12/02 02:13:04;;;;;;;5.68;5.15;;;22.00;75.10;;;;;;6226871;28;84073;-61
2021/12/02 02:16:06;;;;;;;5.65;5.07;;;22.00;75.10;;;;;;6225532;28;83274;-61
2021/12/02 02:19:11;;;;;;;6.63;5.72;;;21.90;75.00;;;;;;6216456;28;82994;-61
2021/12/02 02:22:19;;;;;;;6.35;5.43;;;22.00;75.20;;;;;;6217048;28;83994;-62
2021/12/02 02:25:21;;;;;;;5.95;5.35;;;21.90;75.00;;;;;;6232285;28;83840;-61
2021/12/02 02:28:23;;;;;;;6.50;5.72;;;22.00;75.20;;;;;;6212945;28;84102;-61
2021/12/02 02:31:28;;;;;;;6.28;5.38;;;21.90;75.10;;;;;;6227099;28;82185;-61
2021/12/02 02:34:31;;;;;;;5.70;5.20;;;21.90;75.10;;;;;;6217758;28;84448;-61
2021/12/02 02:37:36;;;;;;;6.40;5.80;;;22.00;75.10;;;;;;6217456;28;84100;-61
2021/12/02 02:40:40;;;;;;;6.22;5.63;;;22.00;75.00;;;;;;6232544;28;84697;-61
2021/12/02 02:43:48;;;;;;;5.90;5.30;;;22.00;75.00;;;;;;6233205;28;84093;-60
2021/12/02 02:46:50;;;;;;;6.30;5.70;;;22.00;75.40;;;;;;6225059;28;84475;-61
2021/12/02 02:49:52;;;;;;;6.18;5.57;;;22.00;74.90;;;;;;6226123;28;82934;-61
2021/12/02 02:53:04;;;;;;;6.35;5.70;;;22.00;74.90;;;;;;6214018;28;83837;-61
2021/12/02 02:56:09;;;;;;;6.30;5.70;;;22.00;74.90;;;;;;6216400;28;84001;-61
2021/12/02 02:59:24;;;;;;;6.57;5.88;;;22.00;74.90;;;;;;6234487;28;83792;-60
2021/12/02 03:02:31;;;;;;;6.68;5.97;;;21.90;74.90;;;;;;6211737;28;83594;-61
2021/12/02 03:05:41;;;;;;;5.93;5.18;;;21.90;75.00;;;;;;6227608;28;84047;-61
2021/12/02 03:08:50;;;;;;;6.15;5.50;;;21.90;75.00;;;;;;6229780;28;84140;-61
2021/12/02 03:11:55;;;;;;;5.90;5.30;;;21.90;75.00;;;;;;6221618;28;84942;-61
2021/12/02 03:18:17;;;;;;;5.80;5.13;;;21.80;75.00;;;;;;6223891;28;83078;-61
2021/12/02 03:21:20;;;;;;;5.90;5.40;;;21.80;75.10;;;;;;6216082;28;82942;-61
2021/12/02 03:24:25;;;;;;;5.90;5.30;;;21.80;75.10;;;;;;6228713;28;83977;-61
2021/12/02 03:27:27;;;;;;;6.80;6.10;;;21.80;75.10;;;;;;6230326;28;84273;-60
2021/12/02 03:30:29;;;;;;;6.13;5.53;;;21.80;75.20;;;;;;6227048;28;84035;-61
2021/12/02 03:33:31;;;;;;;5.57;5.07;;;21.80;75.20;;;;;;6221817;28;83294;-61
2021/12/02 03:36:33;;;;;;;6.10;5.50;;;21.80;75.20;;;;;;6228425;28;84049;-61
2021/12/02 03:39:37;;;;;;;5.93;5.32;;;21.80;75.10;;;;;;6226445;28;83828;-61
2021/12/02 03:42:45;;;;;;;5.50;5.00;;;21.80;75.00;;;;;;6232065;28;85296;-61
2021/12/02 03:45:47;;;;;;;5.50;5.00;;;21.90;75.00;;;;;;6229670;28;87040;-61
2021/12/02 03:48:50;;;;;;;7.35;5.35;;;21.90;74.90;;;;;;6233879;28;84131;-61
2021/12/02 03:51:53;;;;;;;5.60;5.10;;;21.90;74.90;;;;;;6232383;28;84358;-61
2021/12/02 03:54:56;;;;;;;5.20;4.70;;;21.80;74.90;;;;;;6231028;28;84024;-62
2021/12/02 03:57:58;;;;;;;5.70;5.10;;;21.80;74.90;;;;;;6234248;28;83970;-61
2021/12/02 04:01:00;;;;;;;5.43;4.93;;;21.80;75.00;;;;;;6230447;28;84055;-61
2021/12/02 04:04:02;;;;;;;5.95;5.10;;;21.80;75.00;;;;;;6222131;28;83335;-61
2021/12/02 04:07:05;;;;;;;4.97;4.55;;;21.70;75.00;;;;;;6228857;28;84041;-61
2021/12/02 04:10:09;;;;;;;5.65;5.07;;;21.80;75.10;;;;;;6233170;28;84193;-61
2021/12/02 04:13:16;;;;;;;5.40;4.90;;;21.70;75.10;;;;;;6218317;28;84546;-60
2021/12/02 04:16:20;;;;;;;6.40;4.88;;;21.70;75.10;;;;;;6221548;28;83614;-61
2021/12/02 04:19:23;;;;;;;5.30;4.80;;;21.70;75.10;;;;;;6232902;28;84258;-61
2021/12/02 04:22:26;;;;;;;5.38;4.88;;;21.70;75.10;;;;;;6223745;28;84196;-61
2021/12/02 04:25:29;;;;;;;5.35;4.85;;;21.70;75.00;;;;;;6222133;28;84429;-61
2021/12/02 04:28:32;;;;;;;5.82;5.25;;;21.70;75.00;;;;;;6220864;28;84120;-60
2021/12/02 04:31:34;;;;;;;5.35;4.80;;;21.70;75.10;;;;;;6223806;28;84041;-61
2021/12/02 04:34:55;;;;;;;5.32;4.82;;;21.70;75.20;;;;;;6228144;28;83335;-61
2021/12/02 04:37:56;;;;;;;4.93;4.50;;;21.70;75.10;;;;;;6220870;28;82918;-61
2021/12/02 04:41:00;;;;;;;4.70;4.15;;;21.70;75.10;;;;;;6229534;28;84119;-61
2021/12/02 04:44:02;;;;;;;5.07;4.68;;;21.80;75.20;;;;;;6217849;28;85608;-61
2021/12/02 04:47:04;;;;;;;4.32;3.92;;;21.80;75.10;;;;;;6220331;28;84021;-61
2021/12/02 04:50:09;;;;;;;4.60;4.20;;;21.80;75.00;;;;;;6223097;28;85450;-61
2021/12/02 04:53:11;;;;;;;4.63;4.22;;;21.80;75.00;;;;;;6230092;28;85193;-61
2021/12/02 04:56:15;;;;;;;4.40;4.00;;;21.80;74.90;;;;;;6230473;28;82699;-61
2021/12/02 04:59:17;;;;;;;5.13;4.63;;;21.90;74.90;;;;;;6234001;28;84223;-60
2021/12/02 05:02:19;;;;;;;4.22;3.83;;;21.90;74.90;;;;;;6231921;28;83078;-61
2021/12/02 05:05:22;;;;;;;4.35;3.95;;;21.90;74.80;;;;;;6227979;28;82262;-61
2021/12/02 05:08:24;;;;;;;4.40;4.00;;;21.90;74.70;;;;;;6218842;28;82769;-61
2021/12/02 05:11:27;;;;;;;4.88;4.38;;;21.90;74.70;;;;;;6225645;28;84337;-61
2021/12/02 05:14:29;;;;;;;4.20;3.80;;;22.00;74.70;;;;;;6228024;28;84931;-61
2021/12/02 05:17:32;;;;;;;4.30;3.90;;;22.00;74.60;;;;;;6216903;28;84033;-61
2021/12/02 05:20:34;;;;;;;3.50;3.20;;;22.00;74.50;;;;;;6213315;28;84099;-61
2021/12/02 05:23:36;;;;;;;3.90;3.50;;;22.00;74.50;;;;;;6215265;28;83982;-61
2021/12/02 05:26:40;;;;;;;3.90;3.60;;;22.00;74.40;;;;;;6224959;28;83672;-61
2021/12/02 05:29:42;;;;;;;3.53;3.22;;;22.00;74.50;;;;;;6220240;28;83596;-61
2021/12/02 05:32:44;;;;;;;3.75;3.45;;;22.00;75.40;;;;;;6230218;28;84017;-61
2021/12/02 05:35:46;;;;;;;3.92;3.53;;;22.00;74.40;;;;;;6228421;28;83223;-61
2021/12/02 05:38:48;;;;;;;3.80;3.40;;;22.10;74.50;;;;;;6228278;28;84489;-61
2021/12/02 05:41:53;;;;;;;3.83;3.47;;;22.00;74.50;;;;;;6218557;28;83981;-61
2021/12/02 05:44:55;;;;;;;4.07;3.67;;;22.00;74.60;;;;;;6218221;28;83569;-61
2021/12/02 05:47:58;;;;;;;4.85;3.70;;;22.00;74.80;;;;;;6231020;28;82745;-62
2021/12/02 05:51:00;;;;;;;5.22;4.68;;;22.00;75.20;;;;;;6223832;28;82472;-61
2021/12/02 05:54:02;;;;;;;4.15;3.75;;;22.00;78.00;;;;;;6227316;28;84057;-60
2021/12/02 05:57:05;;;;;;;4.95;3.65;;;22.10;76.60;;;;;;6228763;28;84312;-60
2021/12/02 06:00:09;;;;;;;3.78;3.40;;;22.10;75.70;;;;;;6236925;28;84068;-61
2021/12/02 06:03:12;;;;;;;3.70;3.40;;;22.20;75.20;;;;;;6222421;28;84041;-61
2021/12/02 06:06:15;;;;;;;4.05;3.60;;;22.20;75.00;;;;;;6221511;28;82952;-61
2021/12/02 06:09:19;;;;;;;3.60;3.30;;;22.20;74.80;;;;;;6223195;28;83691;-61
2021/12/02 06:12:22;;;;;;;4.18;3.60;;;22.20;74.80;;;;;;6235773;28;84135;-61
2021/12/02 06:15:24;;;;;;;5.50;3.50;;;22.20;74.80;;;;;;6234507;28;84993;-61
2021/12/02 06:18:26;;;;;;;4.25;2.97;;;22.20;74.90;;;;;;6221816;28;84750;-61
2021/12/02 06:21:28;;;;;;;3.72;3.33;;;22.20;74.90;;;;;;6236350;28;84665;-61
2021/12/02 06:24:41;;;;;;;3.33;2.95;;;22.20;74.80;;;;;;6225575;28;84364;-60
2021/12/02 06:27:47;;;;;;;3.35;2.88;;;22.20;74.70;;;;;;6222116;28;83989;-61
2021/12/02 06:30:49;;;;;;;3.50;3.15;;;22.20;74.70;;;;;;6231300;28;83897;-61
2021/12/02 06:33:51;;;;;;;3.30;3.00;;;22.30;74.70;;;;;;6223217;28;83976;-61
2021/12/02 06:36:53;;;;;;;3.65;3.00;;;22.30;74.50;;;;;;6232890;28;83570;-61
2021/12/02 06:39:55;;;;;;;3.38;3.08;;;22.30;74.40;;;;;;6220193;28;83859;-61
2021/12/02 06:42:59;;;;;;;3.85;2.78;;;22.30;74.40;;;;;;6231645;28;83280;-61
2021/12/02 06:46:01;;;;;;;3.15;2.85;;;22.30;74.30;;;;;;6233258;28;85880;-61
2021/12/02 06:49:03;;;;;;;3.65;3.35;;;22.30;74.20;;;;;;6226548;28;85699;-61
2021/12/02 06:52:10;;;;;;;3.38;2.60;;;22.40;74.20;;;;;;6224470;28;83991;-61
2021/12/02 06:55:12;;;;;;;3.00;2.78;;;22.40;74.20;;;;;;6230530;28;84164;-61
2021/12/02 06:58:16;;;;;;;3.05;2.60;;;22.40;74.10;;;;;;6224498;28;84121;-61
2021/12/02 07:01:18;;;;;;;3.13;2.83;;;22.40;74.00;;;;;;6224823;28;84479;-60
2021/12/02 07:04:20;;;;;;;3.25;2.85;;;22.40;74.00;;;;;;6234613;28;83934;-61
2021/12/02 07:07:22;;;;;;;3.30;2.50;;;22.40;74.00;;;;;;6221058;28;83264;-61
2021/12/02 07:10:25;;;;;;;2.88;2.63;;;22.40;74.00;;;;;;6234639;28;84223;-61
2021/12/02 07:13:29;;;;;;;3.15;2.60;;;22.40;73.90;;;;;;6229076;28;82960;-61
2021/12/02 07:16:32;;;;;;;3.33;2.60;;;22.40;73.80;;;;;;6220561;28;84874;-60
2021/12/02 07:19:38;;;;;;;3.08;2.67;;;22.40;73.80;;;;;;6224094;28;84596;-60
2021/12/02 07:22:41;;;;;;;4.75;2.45;;;22.40;73.80;;;;;;6223012;28;84078;-61
2021/12/02 07:25:43;;;;;;;3.00;2.40;;;22.40;73.80;;;;;;6224780;28;82927;-61
2021/12/02 07:28:47;;;;;;;3.00;2.30;;;22.40;73.70;;;;;;6218997;28;82925;-61
2021/12/02 07:31:51;;;;;;;2.50;2.30;;;22.40;73.70;;;;;;6213328;28;83174;-61
2021/12/02 07:34:59;;;;;;;2.50;2.30;;;22.50;73.80;;;;;;6219744;28;84019;-61
2021/12/02 07:38:03;;;;;;;4.15;2.65;;;22.50;73.70;;;;;;6229723;28;83669;-61
2021/12/02 07:41:05;;;;;;;2.72;2.20;;;22.50;73.60;;;;;;6231034;28;84502;-62
2021/12/02 07:44:09;;;;;;;2.38;2.17;;;22.50;73.60;;;;;;6225910;28;84475;-60
2021/12/02 07:47:11;;;;;;;2.53;2.30;;;22.50;73.50;;;;;;6222430;28;85049;-61
2021/12/02 07:50:15;;;;;;;2.40;2.20;;;22.50;73.50;;;;;;6220876;28;82831;-61
2021/12/02 07:53:18;;;;;;;2.72;2.03;;;22.50;73.50;;;;;;6231084;28;82922;-61
2021/12/02 07:56:23;;;;;;;2.40;2.15;;;22.50;73.50;;;;;;6227977;28;84310;-61
2021/12/02 07:59:27;;;;;;;2.40;2.20;;;22.50;73.50;;;;;;6220663;28;84275;-61
2021/12/02 08:02:33;;;;;;;2.70;2.20;;;22.50;73.50;;;;;;6219523;28;84025;-61
2021/12/02 08:05:35;;;;;;;2.38;2.10;;;22.50;73.50;;;;;;6232214;28;82758;-61
2021/12/02 08:08:38;;;;;;;2.17;1.98;;;22.50;73.40;;;;;;6218094;28;83678;-61
2021/12/02 08:11:40;;;;;;;2.78;2.10;;;22.50;73.40;;;;;;6229774;28;84397;-60
2021/12/02 08:14:43;;;;;;;2.25;2.05;;;22.50;73.40;;;;;;6220353;28;84325;-61
2021/12/02 08:17:45;;;;;;;2.60;2.00;;;22.50;73.40;;;;;;6227057;28;85069;-61
2021/12/02 08:20:47;;;;;;;2.80;1.90;;;22.50;73.40;;;;;;6221872;28;84061;-61
2021/12/02 08:23:49;;;;;;;2.17;1.90;;;22.50;73.40;;;;;;6213616;28;84012;-61
2021/12/02 08:26:51;;;;;;;2.55;1.98;;;22.50;73.30;;;;;;6223932;28;85335;-61
2021/12/02 08:29:55;;;;;;;2.58;2.22;;;22.50;73.30;;;;;;6221860;28;83988;-61
2021/12/02 08:32:59;;;;;;;2.20;2.00;;;22.60;73.30;;;;;;6223309;28;86812;-61
2021/12/02 08:36:01;;;;;;;1.95;1.80;;;22.60;73.30;;;;;;6212368;28;84085;-60
2021/12/02 08:39:06;;;;;;;2.15;1.95;;;22.60;73.30;;;;;;6219235;28;83377;-61
2021/12/02 08:42:09;;;;;;;2.10;1.90;;;22.60;73.20;;;;;;6211239;28;82897;-61
2021/12/02 08:45:13;;;;;;;2.53;2.20;;;22.60;73.20;;;;;;6223387;28;84195;-61
2021/12/02 08:48:15;;;;;;;2.05;1.85;;;22.60;73.20;;;;;;6219880;28;85082;-61
2021/12/02 08:51:17;;;;;;;2.17;1.80;;;22.60;73.20;;;;;;6230993;28;84041;-60
2021/12/02 08:54:20;;;;;;;2.22;1.95;;;22.60;73.20;;;;;;6230021;28;83998;-61
2021/12/02 08:57:23;;;;;;;2.00;1.80;;;22.60;73.20;;;;;;6217281;28;82979;-60
2021/12/02 09:00:33;;;;;;;1.75;1.65;;;22.60;73.20;;;;;;6220631;28;83851;-61
2021/12/02 09:03:37;;;;;;;1.80;1.70;;;22.60;73.20;;;;;;6226557;28;82923;-61
2021/12/02 09:06:39;;;;;;;2.13;1.80;;;22.60;73.20;;;;;;6227856;28;82949;-61
2021/12/02 09:09:41;;;;;;;2.17;1.70;;;22.60;73.20;;;;;;6232150;28;83397;-60
2021/12/02 09:12:45;;;;;;;2.00;1.80;;;22.60;73.10;;;;;;6218429;28;82919;-61
2021/12/02 09:15:48;;;;;;;1.83;1.70;;;22.60;73.10;;;;;;6221649;28;84065;-61
2021/12/02 09:18:50;;;;;;;1.70;1.55;;;22.70;73.10;;;;;;6228365;28;85430;-61
2021/12/02 09:21:53;;;;;;;2.05;1.80;;;22.60;73.00;;;;;;6217147;28;83205;-60
2021/12/02 09:24:54;;;;;;;2.30;2.10;;;22.70;73.10;;;;;;6231065;28;82772;-61
2021/12/02 09:27:56;;;;;;;1.80;1.70;;;22.60;73.00;;;;;;6223717;28;83940;-61
2021/12/02 09:31:00;;;;;;;1.77;1.67;;;22.70;73.10;;;;;;6221501;28;83038;-61
2021/12/02 09:34:02;;;;;;;2.00;1.80;;;22.70;73.00;;;;;;6220374;28;82938;-60
2021/12/02 09:37:04;;;;;;;1.60;1.50;;;22.70;73.00;;;;;;6224892;28;83117;-60
2021/12/02 09:40:09;;;;;;;1.60;1.50;;;22.70;73.00;;;;;;6221139;28;82541;-61
2021/12/02 09:43:12;;;;;;;1.90;1.60;;;22.70;73.00;;;;;;6230084;28;85024;-61
2021/12/02 09:46:15;;;;;;;1.80;1.65;;;22.70;73.00;;;;;;6226869;28;83207;-61
2021/12/02 09:49:18;;;;;;;1.95;1.77;;;22.70;73.00;;;;;;6229198;28;85011;-60
2021/12/02 09:52:29;;;;;;;1.40;1.30;;;22.70;73.00;;;;;;6216428;28;83963;-61
2021/12/02 09:55:35;;;;;;;1.70;1.60;;;22.70;73.00;;;;;;6218422;28;84485;-61
2021/12/02 09:58:38;;;;;;;1.70;1.50;;;22.70;73.00;;;;;;6199193;28;83896;-61
2021/12/02 10:01:45;;;;;;;1.70;1.60;;;22.70;73.00;;;;;;6201011;28;84376;-60
2021/12/02 10:04:51;;;;;;;2.45;1.70;;;22.70;73.00;;;;;;6205730;28;84244;-61
2021/12/02 10:08:00;;;;;;;1.95;1.70;;;22.70;72.90;;;;;;6197498;28;84275;-60
2021/12/02 10:11:06;;;;;;;1.50;1.40;;;22.70;73.00;;;;;;6206503;28;83300;-60
2021/12/02 10:14:19;;;;;;;1.55;1.45;;;22.70;72.90;;;;;;6205312;28;82920;-60
2021/12/02 10:17:32;;;;;;;1.90;1.50;;;22.70;72.80;;;;;;6207273;28;82719;-61
2021/12/02 10:23:54;;;;;;;1.42;1.30;;;22.80;72.90;;;;;;6198134;28;82200;-61
2021/12/02 10:26:58;;;;;;;1.80;1.48;;;22.80;72.90;;;;;;6185250;28;84458;-61
2021/12/02 10:30:00;;;;;;;1.60;1.50;;;22.80;73.00;;;;;;6196781;28;84396;-61
2021/12/02 10:33:03;;;;;;;1.38;1.27;;;22.70;72.80;;;;;;6203766;28;84042;-61
2021/12/02 10:36:08;;;;;;;1.63;1.42;;;22.80;72.80;;;;;;6205632;28;84358;-61
2021/12/02 10:39:16;;;;;;;1.40;1.20;;;22.80;72.80;;;;;;6205831;28;83999;-60
2021/12/02 10:42:22;;;;;;;2.03;1.60;;;22.80;72.80;;;;;;6204958;28;83354;-60
2021/12/02 10:45:26;;;;;;;2.03;1.42;;;22.80;72.80;;;;;;6201894;28;85631;-61
2021/12/02 10:52:01;;;;;;;1.60;1.20;;;22.80;72.80;;;;;;6261230;27;80406;-61
2021/12/02 10:55:07;;;;;;;1.42;1.20;;;22.80;72.80;;;;;;6233103;28;81411;-61
2021/12/02 10:58:10;;;;;;;1.73;1.40;;;22.80;72.80;;;;;;6230345;28;83269;-61
2021/12/02 11:01:38;;;;;;;1.50;1.40;;;22.80;72.80;;;;;;6237073;27;82267;-61
2021/12/02 11:04:43;;;;;;;1.85;1.48;;;22.80;72.80;;;;;;6229605;28;82367;-61
2021/12/02 11:07:53;;;;;;;1.85;1.40;;;22.80;72.80;;;;;;6238700;28;82346;-61
2021/12/02 11:10:55;;;;;;;1.60;1.50;;;22.80;72.80;;;;;;6222540;28;82231;-61
2021/12/02 11:13:57;;;;;;;1.40;1.30;;;22.80;72.80;;;;;;6228140;28;82196;-62
2021/12/02 11:17:07;;;;;;;1.60;1.40;;;22.90;72.80;;;;;;6228376;28;82271;-61
2021/12/02 11:20:12;;;;;;;1.40;1.30;;;22.90;72.90;;;;;;6230769;28;82152;-62
2021/12/02 11:23:19;;;;;;;1.50;1.40;;;22.80;72.80;;;;;;6227504;28;82311;-61
2021/12/02 11:26:22;;;;;;;1.88;1.45;;;22.80;72.70;;;;;;6229822;28;82411;-61
2021/12/02 11:29:47;;;;;;;1.98;1.20;;;22.80;72.70;;;;;;6229634;28;81171;-61
2021/12/02 11:32:56;;;;;;;1.33;1.23;;;22.80;72.80;;;;;;6250134;28;81420;-61
2021/12/02 11:35:58;;;;;;;1.77;1.40;;;22.90;72.80;;;;;;6228443;28;82270;-61
2021/12/02 11:39:07;;;;;;;1.58;1.48;;;22.90;72.80;;;;;;6237533;28;81735;-62
2021/12/02 11:42:09;;;;;;;1.85;1.55;;;22.90;72.80;;;;;;6241606;28;82300;-61
2021/12/02 11:45:13;;;;;;;1.58;1.48;;;22.90;72.80;;;;;;6244410;27;81181;-61
2021/12/02 11:48:18;;;;;;;1.60;1.50;;;22.90;72.80;;;;;;6239388;27;82276;-61
2021/12/02 11:51:22;;;;;;;1.70;1.60;;;22.80;72.80;;;;;;6217749;28;82290;-61
2021/12/02 11:54:26;;;;;;;1.52;1.42;;;22.80;72.70;;;;;;6229279;28;82587;-62
2021/12/02 11:57:30;;;;;;;1.65;1.55;;;22.90;72.80;;;;;;6214599;28;82297;-61
2021/12/02 12:00:33;;;;;;;1.52;1.40;;;22.80;72.70;;;;;;6238209;28;81140;-61
2021/12/02 12:03:37;;;;;;;1.70;1.60;;;22.80;72.70;;;;;;6218897;28;82366;-62
2021/12/02 12:06:41;;;;;;;1.58;1.48;;;22.90;72.80;;;;;;6223452;28;82470;-61
2021/12/02 12:09:45;;;;;;;1.67;1.50;;;22.90;72.80;;;;;;6204815;28;81130;-62
2021/12/02 12:12:47;;;;;;;1.83;1.73;;;22.90;72.70;;;;;;6209656;28;82243;-61
2021/12/02 12:15:52;;;;;;;1.92;1.83;;;22.90;72.80;;;;;;6211046;28;82326;-61
2021/12/02 12:18:55;;;;;;;1.90;1.70;;;22.90;72.80;;;;;;6217757;28;82385;-61
2021/12/02 12:22:00;;;;;;;1.90;1.80;;;22.90;72.80;;;;;;6212715;28;82298;-61
2021/12/02 12:25:07;;;;;;;2.10;1.90;;;22.90;72.80;;;;;;6212210;28;82695;-62
2021/12/02 12:28:09;;;;;;;1.88;1.70;;;22.90;72.80;;;;;;6211380;28;82088;-61
2021/12/02 12:31:11;;;;;;;1.70;1.60;;;22.90;72.70;;;;;;6216477;28;82586;-62
2021/12/02 12:34:52;;;;;;;1.88;1.77;;;22.90;72.70;;;;;;6212671;28;82292;-62
2021/12/02 12:38:01;;;;;;;1.80;1.70;;;22.90;72.70;;;;;;6207202;28;82265;-61
2021/12/02 12:41:14;;;;;;;1.80;1.70;;;22.90;72.70;;;;;;6208138;28;82121;-62
2021/12/02 12:44:16;;;;;;;1.80;1.70;;;22.90;72.70;;;;;;6223613;28;81419;-61
2021/12/02 12:47:19;;;;;;;2.00;1.80;;;22.90;72.70;;;;;;6235339;28;82340;-62
2021/12/02 12:50:24;;;;;;;1.80;1.70;;;22.90;72.70;;;;;;6203233;28;82421;-61
2021/12/02 12:53:36;;;;;;;2.00;1.80;;;22.90;72.70;;;;;;6201520;28;82670;-61
2021/12/02 12:56:42;;;;;;;1.70;1.60;;;22.80;72.70;;;;;;6222071;28;81200;-61
2021/12/02 12:59:54;;;;;;;1.98;1.88;;;22.90;72.70;;;;;;6220983;28;83695;-61
2021/12/02 13:02:57;;;;;;;1.90;1.80;;;22.90;72.70;;;;;;6214565;28;82528;-61
2021/12/02 13:06:05;;;;;;;1.90;1.80;;;22.90;72.70;;;;;;6220684;28;82242;-62
2021/12/02 13:09:07;;;;;;;1.85;1.75;;;22.90;72.60;;;;;;6209917;28;82427;-61
2021/12/02 13:12:13;;;;;;;1.77;1.67;;;22.90;73.50;;;;;;6222734;28;82623;-62
2021/12/02 13:15:19;;;;;;;1.90;1.80;;;22.90;72.70;;;;;;6209855;28;82367;-61
2021/12/02 13:18:32;;;;;;;1.75;1.65;;;22.90;72.70;;;;;;6221477;28;83249;-61
2021/12/02 13:21:34;;;;;;;1.88;1.77;;;22.90;72.60;;;;;;6227530;28;82323;-61
2021/12/02 13:24:38;;;;;;;2.35;1.75;;;22.90;72.60;;;;;;6211462;28;81237;-61
2021/12/02 13:27:41;;;;;;;1.85;1.75;;;22.90;72.60;;;;;;6196887;28;83334;-62
2021/12/02 13:30:48;;;;;;;1.85;1.75;;;22.90;72.60;;;;;;6213595;28;82279;-62
2021/12/02 13:33:52;;;;;;;1.92;1.83;;;22.90;72.60;;;;;;6201038;28;81154;-61
2021/12/02 13:36:57;;;;;;;1.85;1.75;;;23.00;72.80;;;;;;6205776;28;82212;-61
2021/12/02 13:39:59;;;;;;;2.42;1.85;;;22.90;72.80;;;;;;6221174;28;82128;-62
2021/12/02 13:43:03;;;;;;;1.92;1.77;;;22.90;72.80;;;;;;6209708;28;82632;-61
2021/12/02 13:46:11;;;;;;;2.30;1.73;;;23.00;73.00;;;;;;6214671;28;82245;-61
2021/12/02 13:49:19;;;;;;;1.90;1.80;;;22.90;72.90;;;;;;6202525;28;82348;-62
2021/12/02 13:52:24;;;;;;;1.77;1.67;;;23.00;73.00;;;;;;6206255;28;81038;-62
2021/12/02 13:55:29;;;;;;;2.15;1.90;;;23.00;73.10;;;;;;6212291;28;82299;-61
2021/12/02 13:58:32;;;;;;;1.77;1.50;;;23.00;73.20;;;;;;6207664;28;82445;-61
2021/12/02 14:01:34;;;;;;;1.73;1.63;;;23.00;73.20;;;;;;6205917;28;82430;-61
2021/12/02 14:04:45;;;;;;;1.90;1.80;;;22.90;73.20;;;;;;6203019;28;81933;-61
2021/12/02 14:07:49;;;;;;;1.67;1.58;;;23.00;73.30;;;;;;6205310;28;82420;-61
2021/12/02 14:10:52;;;;;;;1.80;1.65;;;23.00;73.30;;;;;;6195207;28;81214;-61
2021/12/02 14:13:59;;;;;;;2.08;1.88;;;23.00;73.30;;;;;;6206590;28;81992;-62
2021/12/02 14:17:05;;;;;;;1.70;1.60;;;23.00;73.40;;;;;;6201401;28;82293;-61
2021/12/02 14:20:10;;;;;;;1.70;1.60;;;23.00;73.40;;;;;;6215463;28;82414;-62
2021/12/02 14:23:15;;;;;;;2.35;1.85;;;23.00;73.40;;;;;;6208985;28;82303;-61
2021/12/02 14:26:19;;;;;;;1.80;1.70;;;23.00;73.40;;;;;;6207783;28;82339;-61
2021/12/02 14:29:22;;;;;;;2.53;1.58;;;23.00;73.40;;;;;;6212193;28;82299;-61
2021/12/02 14:32:31;;;;;;;1.95;1.85;;;23.10;73.50;;;;;;6205979;28;82511;-62
2021/12/02 14:35:43;;;;;;;1.95;1.80;;;23.00;74.40;;;;;;6207895;28;80928;-61
2021/12/02 14:38:48;;;;;;;1.80;1.70;;;23.00;73.50;;;;;;6201956;28;82335;-61
2021/12/02 14:41:52;;;;;;;1.92;1.80;;;23.00;73.50;;;;;;6196657;28;81552;-62
2021/12/02 14:44:56;;;;;;;2.95;1.70;;;23.00;73.50;;;;;;6189870;28;82315;-61
2021/12/02 14:47:58;;;;;;;1.83;1.65;;;23.00;73.50;;;;;;6186459;28;82613;-61
2021/12/02 14:51:04;;;;;;;2.05;1.58;;;23.00;73.50;;;;;;6186710;28;81880;-62
2021/12/02 14:54:06;;;;;;;2.90;2.10;;;23.00;73.30;;;;;;6196407;28;80523;-62
2021/12/02 14:57:22;;;;;;;3.05;1.95;;;23.00;73.40;;;;;;6189537;28;81229;-62
2021/12/02 15:00:26;;;;;;;1.90;1.80;;;23.10;73.60;;;;;;6195281;28;82284;-61
2021/12/02 15:03:29;;;;;;;2.13;1.92;;;23.10;73.50;;;;;;6198514;28;82258;-62
2021/12/02 15:06:36;;;;;;;2.85;2.00;;;23.10;73.70;;;;;;6186440;28;82221;-62
2021/12/02 15:09:40;;;;;;;3.30;2.05;;;23.20;73.50;;;;;;6185478;28;81979;-61
2021/12/02 15:12:43;;;;;;;2.13;1.92;;;23.20;73.40;;;;;;6190755;28;82307;-61
2021/12/02 15:15:49;;;;;;;1.90;1.70;;;23.30;73.50;;;;;;6198959;28;82282;-61
2021/12/02 15:18:51;;;;;;;4.57;2.22;;;23.20;73.50;;;;;;6192852;28;82398;-62
2021/12/02 15:21:53;;;;;;;3.42;1.95;;;23.30;75.90;;;;;;6205632;28;82672;-61
2021/12/02 15:25:11;;;;;;;5.07;1.90;;;23.30;74.80;;;;;;6197670;28;82179;-61
2021/12/02 15:28:17;;;;;;;3.42;1.98;;;23.40;74.20;;;;;;6217345;28;83820;-62
2021/12/02 15:31:23;;;;;;;3.08;2.00;;;23.40;75.00;;;;;;6204063;28;84058;-61
2021/12/02 15:34:25;;;;;;;4.53;2.20;;;23.40;74.00;;;;;;6219135;28;81214;-62
2021/12/02 15:37:27;;;;;;;4.07;2.28;;;23.50;74.10;;;;;;6228066;28;80292;-60
2021/12/02 15:40:29;;;;;;;5.30;2.10;;;23.50;73.50;;;;;;6202486;28;82284;-62
2021/12/02 15:43:39;;;;;;;3.97;2.20;;;23.50;73.50;;;;;;6200033;28;82446;-61
2021/12/02 15:46:45;;;;;;;2.92;1.85;;;23.50;73.50;;;;;;6198088;28;82681;-61
2021/12/02 15:49:59;;;;;;;2.63;1.98;;;23.40;73.30;;;;;;6213223;28;82378;-62
2021/12/02 15:53:05;;;;;;;5.05;2.35;;;23.40;73.30;;;;;;6212381;28;82317;-61
2021/12/02 15:56:08;;;;;;;2.97;1.88;;;23.40;73.30;;;;;;6215504;28;81242;-61
2021/12/02 15:59:10;;;;;;;3.85;1.95;;;23.30;73.30;;;;;;6220886;28;82652;-62
2021/12/02 16:02:22;;;;;;;3.42;2.10;;;23.40;73.30;;;;;;6210200;28;83800;-61
2021/12/02 16:08:51;;;;;;;2.83;1.90;;;23.30;73.30;;;;;;6220955;28;84859;-62
2021/12/02 16:12:04;;;;;;;1.88;1.77;;;23.30;73.30;;;;;;6215972;28;84324;-62
2021/12/02 16:15:09;;;;;;;2.00;1.83;;;23.30;73.40;;;;;;6202374;28;85309;-61
2021/12/02 16:18:12;;;;;;;3.78;2.00;;;23.30;73.30;;;;;;6215496;28;83960;-62